Aeroporto :
LOGIN :

Iscrizione | Disclaimer

   EN    FR    IT 

 










Sommario :    VFR   VFR Marginale   IFR   IFR Intensivo   IFR Molto Intensivo
Visibilità : 
Base nubi : 
>= 8 km
>= 3000ft
5 / 8 km
1000 / 3000 ft
1500m / 5 km
500 / 1000 ft
800 / 1500m
200 / 500 ft
< 800m
< 200 ft
Simboli :   Temporali  Nebbia  Neve Forte  Precipitazioni Forti  Vento > 20 kt
SIGMETs :   Varie  Temporali  Ghiacco  Turbolenza  Onda orograficha  Ceneri Vulcaniche






- Altitudine del aeroporto : 306 ft
- Codice IATA : EMA


EGNX - Nottingham East Midlands

ULTIMO METAR :
  • 261720Z 29010KT CAVOK 20/11 Q1035

METARs OBSOLETI :
  • 261650Z 28010KT 250V320 9999 FEW038 21/11 Q1035
  • 261620Z 27009KT 240V310 9999 FEW038 21/11 Q1035
  • 261550Z 26010KT 240V300 9999 FEW045 22/11 Q1035
  • 261520Z 30007KT 260V350 9999 FEW039 21/11 Q1035
  • 261450Z 29007KT 220V340 9999 FEW040 22/11 Q1035

TAF TAF EGNX
Valido dal 26 a 18 ore il 27 a 18 ore UTC


261652Z 2618/2718 29009KT 9999 SCT040
ATIS : +44 1332 852 852 (ext 3201)



MetMap, La meteo Aeronautica in un colpo d'occhio ! - Copyright ORBIFLY Dicembre 2007 - Disclaimer

ORBIFLY MET'MAP TEAM :

Programmazione e sviluppo : Alexandra Zaïnal
Concezione : Baudouin d'Aumeries
Aiuto per la programmazione : Marc-Olivier Méhu
Supporto tecnico e logistico : Manuel Goepfert
Aiuto per la traduzione : Arnaldo La Scala

Contatto : metmap@orbifly.com




FONTI E CREDITI :

   NOAA